Time;durP1;ratioP1;P1;durP2;ratioP2;P2;SDS_P1;SDS_P2;PMS_P1;PMS_P2;Temp;Humidity;BMP_temperature;BMP_pressure;BME280_temperature;BME280_humidity;BME280_pressure;Samples;Min_cycle;Max_cycle;Signal;HPM_P1;HPM_P2
2022/04/16 00:01:34;;;;;;;20.70;8.70;;;;;;;11.70;48.82;98992.59;1771328;80;20983;-88
2022/04/16 00:04:01;;;;;;;20.02;9.10;;;;;;;11.71;50.84;98985.16;1771252;81;21102;-88
2022/04/16 00:06:28;;;;;;;24.37;9.58;;;;;;;11.70;50.17;98989.98;1771608;80;21014;-88
2022/04/16 00:08:55;;;;;;;16.97;9.00;;;;;;;11.69;48.89;98984.81;1771341;81;21056;-89
2022/04/16 00:11:22;;;;;;;19.80;9.03;;;;;;;11.68;49.84;98981.37;1771152;80;20967;-88
2022/04/16 00:13:51;;;;;;;24.37;9.05;;;;;;;11.69;50.54;98990.02;1762362;81;21316;-88
2022/04/16 00:16:18;;;;;;;21.00;10.38;;;;;;;11.69;49.59;98990.02;1746944;79;20964;-88
2022/04/16 00:18:45;;;;;;;17.98;9.03;;;;;;;11.68;48.23;98987.03;1746762;81;21105;-88
2022/04/16 00:21:13;;;;;;;22.17;9.50;;;;;;;11.64;48.85;98975.86;1747093;79;20960;-88
2022/04/16 00:23:43;;;;;;;18.82;9.70;;;;;;;11.64;47.52;98973.67;1746897;82;21011;-88
2022/04/16 00:26:13;;;;;;;26.07;10.25;;;;;;;11.63;47.63;98968.92;1746903;82;20984;-88
2022/04/16 00:28:40;;;;;;;24.25;9.75;;;;;;;11.64;47.79;98972.37;1746896;82;20964;-89
2022/04/16 00:31:08;;;;;;;21.87;9.38;;;;;;;11.60;47.43;98975.55;1755477;81;21073;-88
2022/04/16 00:33:38;;;;;;;23.50;9.55;;;;;;;11.59;48.07;98976.89;1802415;79;21087;-88
2022/04/16 00:36:05;;;;;;;23.83;9.73;;;;;;;11.59;48.74;98972.53;1705253;83;21055;-92
2022/04/16 00:38:31;;;;;;;26.62;10.40;;;;;;;11.62;49.39;98978.08;1704823;83;21021;-90
2022/04/16 00:41:00;;;;;;;19.95;9.50;;;;;;;11.63;49.60;98974.13;1700285;83;21566;-90
2022/04/16 00:43:29;;;;;;;19.73;9.63;;;;;;;11.65;49.70;98978.00;1710579;81;21013;-88
2022/04/16 00:45:57;;;;;;;28.92;9.60;;;;;;;11.67;49.51;98975.74;1707831;81;21592;-92
2022/04/16 00:48:24;;;;;;;39.53;10.90;;;;;;;11.65;48.91;98969.73;1685815;80;21168;-91
2022/04/16 00:50:53;;;;;;;29.85;9.25;;;;;;;11.62;50.94;98978.08;1663303;85;21064;-92
2022/04/16 00:53:21;;;;;;;22.60;10.63;;;;;;;11.56;48.77;98976.55;1735518;80;21095;-91
2022/04/16 00:55:48;;;;;;;24.65;10.18;;;;;;;11.50;48.46;98977.58;1746638;79;21146;-92
2022/04/16 00:58:17;;;;;;;21.95;9.73;;;;;;;11.46;51.19;98981.18;1797529;79;21110;-90
2022/04/16 01:00:44;;;;;;;22.93;10.38;;;;;;;11.47;50.33;98972.91;1792475;78;21019;-90
2022/04/16 01:03:10;;;;;;;21.75;10.70;;;;;;;11.46;50.13;98973.38;1791364;77;21088;-87
2022/04/16 01:05:37;;;;;;;22.98;10.78;;;;;;;11.45;51.04;98974.25;1862482;77;21031;-87
2022/04/16 01:08:05;;;;;;;19.80;9.85;;;;;;;11.43;50.50;98976.52;1862320;76;21018;-87
2022/04/16 01:10:34;;;;;;;22.77;10.65;;;;;;;11.41;50.44;98977.85;1842035;77;20963;-87
2022/04/16 01:13:05;;;;;;;25.75;10.72;;;;;;;11.38;51.06;98977.09;1828777;79;21003;-88
2022/04/16 01:15:32;;;;;;;25.48;11.10;;;;;;;11.33;50.32;98980.68;1828882;79;20972;-88
2022/04/16 01:18:03;;;;;;;26.52;11.22;;;;;;;11.29;53.03;98977.77;1828758;78;21003;-88
2022/04/16 01:20:33;;;;;;;22.02;10.82;;;;;;;11.23;51.27;98974.05;1828759;78;21070;-88
2022/04/16 01:22:59;;;;;;;21.10;10.38;;;;;;;11.21;52.48;98964.59;1828741;79;21004;-88
2022/04/16 01:25:27;;;;;;;20.12;10.35;;;;;;;11.18;50.83;98971.17;1828738;79;20960;-87
2022/04/16 01:27:54;;;;;;;24.45;10.60;;;;;;;11.12;52.78;98974.38;1828798;79;21018;-87
2022/04/16 01:30:23;;;;;;;24.25;10.28;;;;;;;11.06;52.83;98966.76;1828652;78;21035;-87
2022/04/16 01:32:50;;;;;;;23.67;10.45;;;;;;;10.98;53.13;98966.09;1828919;79;20999;-87
2022/04/16 01:35:17;;;;;;;25.45;10.48;;;;;;;10.90;53.54;98968.95;1844437;76;20976;-89
2022/04/16 01:37:47;;;;;;;22.07;10.53;;;;;;;10.84;52.26;98966.95;1728221;81;21054;-87
2022/04/16 01:40:15;;;;;;;24.67;9.58;;;;;;;10.76;53.44;98961.95;1759592;82;21055;-88
2022/04/16 01:42:45;;;;;;;23.07;10.75;;;;;;;10.71;54.20;98963.39;1759643;80;21040;-88
2022/04/16 01:45:18;;;;;;;22.98;10.00;;;;;;;10.63;53.63;98961.45;1718253;84;21048;-88
2022/04/16 01:47:45;;;;;;;17.15;8.80;;;;;;;10.57;52.52;98964.23;1687679;83;21091;-87
2022/04/16 01:50:12;;;;;;;21.35;10.08;;;;;;;10.53;55.02;98963.91;1729670;81;20983;-88
2022/04/16 01:52:43;;;;;;;22.95;10.23;;;;;;;10.51;55.76;98969.59;1758124;79;21064;-86
2022/04/16 01:55:12;;;;;;;24.07;9.53;;;;;;;10.47;53.49;98968.81;1760330;78;21114;-90
2022/04/16 01:57:39;;;;;;;25.30;10.28;;;;;;;10.43;57.05;98977.59;1819970;77;21015;-92
2022/04/16 02:00:08;;;;;;;22.98;10.08;;;;;;;10.40;55.50;98977.66;1820660;79;21388;-93
2022/04/16 02:02:36;;;;;;;19.40;9.30;;;;;;;10.38;54.52;98969.05;1732527;78;21054;-91
2022/04/16 02:05:06;;;;;;;21.15;9.60;;;;;;;10.38;54.26;98965.16;1741532;81;21076;-88
2022/04/16 02:07:32;;;;;;;19.95;9.00;;;;;;;10.37;55.68;98956.13;1741341;80;21068;-88
2022/04/16 02:10:00;;;;;;;21.20;8.90;;;;;;;10.38;54.89;98959.95;1741876;81;21237;-88
2022/04/16 02:12:28;;;;;;;27.55;10.98;;;;;;;10.38;55.24;98954.76;1741926;80;21097;-88
2022/04/16 02:14:55;;;;;;;25.10;10.20;;;;;;;10.35;55.53;98954.40;1741627;80;21005;-89
2022/04/16 02:17:23;;;;;;;23.45;10.08;;;;;;;10.33;55.89;98957.94;1741612;80;21040;-88
2022/04/16 02:19:50;;;;;;;23.65;10.80;;;;;;;10.29;55.69;98954.53;1763675;80;21094;-89
2022/04/16 02:22:17;;;;;;;22.70;12.10;;;;;;;10.25;57.26;98945.57;1786933;80;21060;-88
2022/04/16 02:24:47;;;;;;;21.00;10.63;;;;;;;10.23;57.38;98945.60;1786888;79;21003;-88
2022/04/16 02:27:14;;;;;;;21.97;10.68;;;;;;;10.21;57.19;98943.48;1786926;80;21064;-87
2022/04/16 02:29:42;;;;;;;30.15;10.75;;;;;;;10.18;56.26;98940.95;1800367;79;21844;-88
2022/04/16 02:32:09;;;;;;;22.73;10.43;;;;;;;10.13;54.75;98941.09;1813005;78;20994;-85
2022/04/16 02:34:36;;;;;;;22.52;10.75;;;;;;;10.07;54.52;98950.34;1813026;78;21026;-86
2022/04/16 02:37:02;;;;;;;23.00;11.05;;;;;;;10.01;55.09;98940.11;1807184;76;21143;-90
2022/04/16 02:39:29;;;;;;;25.08;10.53;;;;;;;9.96;56.73;98940.66;1807639;79;21559;-88
2022/04/16 02:41:56;;;;;;;26.87;10.72;;;;;;;9.92;56.95;98937.73;1804712;77;21017;-90
2022/04/16 02:47:09;;;;;;;26.52;9.93;;;;;;;9.83;57.28;98938.82;1786410;79;21023;-91
2022/04/16 02:49:43;;;;;;;26.02;10.43;;;;;;;9.81;58.49;98939.73;1767613;80;20988;-91
2022/04/16 02:52:07;;;;;;;21.93;10.10;;;;;;;9.78;55.09;98939.37;1759137;77;21146;-90
2022/04/16 02:54:34;;;;;;;25.97;10.72;;;;;;;9.73;54.08;98951.17;1766801;78;21590;-92
2022/04/16 02:57:00;;;;;;;29.32;10.95;;;;;;;9.70;57.66;98957.72;1767545;81;21015;-91
2022/04/16 02:59:27;;;;;;;23.92;10.78;;;;;;;9.67;55.79;98959.11;1767811;81;21479;-92
2022/04/16 03:01:54;;;;;;;31.12;11.43;;;;;;;9.65;58.17;98953.52;1767521;81;21031;-91
2022/04/16 03:04:21;;;;;;;28.57;11.45;;;;;;;9.65;57.97;98953.52;1784384;78;21565;-91
2022/04/16 03:06:48;;;;;;;31.12;11.40;;;;;;;9.64;57.62;98955.27;1761637;80;21090;-92
2022/04/16 03:09:15;;;;;;;26.02;9.83;;;;;;;9.64;58.76;98959.16;1821141;79;20960;-92
2022/04/16 03:11:43;;;;;;;38.28;11.18;;;;;;;9.64;56.54;98959.16;1821168;79;21499;-92
2022/04/16 03:19:41;;;;;;;28.50;9.93;;;;;;;9.50;58.94;98950.85;1726391;83;21582;-91
2022/04/16 03:22:07;;;;;;;23.85;9.75;;;;;;;9.42;59.28;98956.21;1747360;82;21032;-91
2022/04/16 03:24:34;;;;;;;24.80;10.10;;;;;;;9.38;59.74;98963.66;1743736;82;21475;-92
2022/04/16 03:27:00;;;;;;;22.00;9.43;;;;;;;9.32;57.39;98957.31;1756276;82;20991;-92
2022/04/16 03:29:27;;;;;;;21.85;9.63;;;;;;;9.25;59.64;98968.70;1751371;82;21027;-91
2022/04/16 03:31:53;;;;;;;23.47;10.60;;;;;;;9.20;60.66;98958.88;1733900;82;21305;-91
2022/04/16 03:34:20;;;;;;;27.90;10.93;;;;;;;9.18;59.90;98962.80;1756134;82;21844;-91
2022/04/16 03:36:47;;;;;;;24.67;14.58;;;;;;;9.11;58.96;98958.20;1751415;82;21505;-91
2022/04/16 03:39:13;;;;;;;29.45;10.50;;;;;;;9.07;60.16;98960.87;1746078;82;21042;-91
2022/04/16 03:41:41;;;;;;;29.15;10.30;;;;;;;9.03;61.02;98957.92;1752326;81;21028;-93
2022/04/16 03:44:08;;;;;;;29.07;10.48;;;;;;;8.98;60.36;98954.14;1762292;81;21014;-91
2022/04/16 03:46:34;;;;;;;27.93;10.32;;;;;;;8.79;59.52;98923.00;1762414;81;21317;-92
2022/04/16 03:49:01;;;;;;;32.60;10.82;;;;;;;8.93;60.58;98956.84;1757863;81;21024;-93
2022/04/16 03:51:27;;;;;;;24.82;9.43;;;;;;;8.91;58.63;98955.14;1745919;81;21067;-93
2022/04/16 03:53:54;;;;;;;23.75;10.00;;;;;;;8.86;59.42;98957.84;1760461;81;21054;-92
2022/04/16 04:01:52;;;;;;;20.32;8.83;;;;;;;8.75;59.25;98971.45;1771812;81;21034;-92
2022/04/16 04:04:19;;;;;;;18.67;7.70;;;;;;;8.75;62.32;98963.67;1771409;81;21034;-91
2022/04/16 04:06:46;;;;;;;20.35;8.63;;;;;;;8.70;58.98;98967.66;1774014;81;20986;-91
2022/04/16 04:09:12;;;;;;;22.52;7.87;;;;;;;8.79;59.15;98966.61;1769151;81;21041;-91
2022/04/16 04:11:39;;;;;;;16.97;8.13;;;;;;;8.84;60.97;98966.09;1767846;81;21054;-91
2022/04/16 04:14:06;;;;;;;19.25;8.35;;;;;;;8.90;60.06;98974.20;1766451;81;21018;-92
2022/04/16 04:16:32;;;;;;;20.12;7.58;;;;;;;8.98;61.62;98976.64;1771436;79;21487;-90
2022/04/16 04:18:59;;;;;;;16.12;7.78;;;;;;;9.05;60.56;98978.20;1771090;79;21034;-91
2022/04/16 04:21:25;;;;;;;16.60;7.87;;;;;;;9.12;60.31;98978.49;1771277;80;21018;-93
2022/04/16 04:23:52;;;;;;;18.82;8.23;;;;;;;9.19;61.10;98981.38;1784839;80;21022;-90
2022/04/16 04:26:18;;;;;;;25.85;8.95;;;;;;;9.24;62.07;98990.35;1771010;81;21010;-92
2022/04/16 04:28:45;;;;;;;20.82;9.03;;;;;;;9.26;61.12;98987.28;1771599;79;21022;-90
2022/04/16 04:31:12;;;;;;;20.45;9.48;;;;;;;9.28;61.11;98991.98;1774505;81;20963;-91
2022/04/16 04:33:38;;;;;;;19.25;8.75;;;;;;;9.32;61.39;98995.77;1765585;81;21538;-92
2022/04/16 04:36:05;;;;;;;22.95;9.18;;;;;;;9.35;61.49;98998.31;1767208;81;20995;-90
2022/04/16 04:38:31;;;;;;;19.35;8.48;;;;;;;9.36;60.58;98996.11;1767827;81;21054;-90
2022/04/16 04:41:00;;;;;;;17.87;9.30;;;;;;;9.34;62.12;98998.34;1765877;81;21037;-91
2022/04/16 04:43:27;;;;;;;31.40;10.32;;;;;;;9.34;60.18;99000.94;1758807;76;21078;-91
2022/04/16 04:45:54;;;;;;;24.80;10.80;;;;;;;9.35;61.91;99008.70;1776576;78;21645;-92
2022/04/16 04:48:20;;;;;;;21.10;9.13;;;;;;;9.33;60.90;99009.59;1758091;80;21030;-92
2022/04/16 04:50:47;;;;;;;18.80;8.93;;;;;;;9.30;59.98;99013.12;1769407;80;21009;-91
2022/04/16 04:53:13;;;;;;;20.62;9.65;;;;;;;9.23;59.15;99012.85;1775666;80;20990;-89
2022/04/16 04:55:40;;;;;;;19.75;8.93;;;;;;;9.20;62.26;99009.02;1769913;81;21042;-92
2022/04/16 04:58:07;;;;;;;24.87;9.58;;;;;;;9.18;61.46;99000.86;1776665;80;20967;-92
2022/04/16 05:00:33;;;;;;;18.98;8.08;;;;;;;9.18;61.32;99005.59;1769311;81;20983;-91
2022/04/16 05:03:00;;;;;;;21.12;8.63;;;;;;;9.17;60.00;99002.58;1777692;80;20980;-92
2022/04/16 05:05:27;;;;;;;22.98;9.45;;;;;;;9.16;59.74;99001.73;1769408;81;21514;-90
2022/04/16 05:07:53;;;;;;;17.42;8.95;;;;;;;9.16;60.63;99007.37;1779645;80;21589;-91
2022/04/16 05:10:21;;;;;;;19.85;8.90;;;;;;;9.14;60.71;99014.33;1780417;80;20958;-91
2022/04/16 05:12:48;;;;;;;21.02;8.43;;;;;;;9.16;58.76;99009.96;1737137;78;21099;-92
2022/04/16 05:15:15;;;;;;;16.90;8.50;;;;;;;9.16;59.06;99020.34;1727895;81;20980;-91
2022/04/16 05:17:42;;;;;;;18.75;7.95;;;;;;;9.18;60.06;99018.56;1661687;78;21177;-91
2022/04/16 05:20:09;;;;;;;19.82;9.05;;;;;;;9.19;61.32;99014.22;1697675;84;21563;-90
2022/04/16 05:22:36;;;;;;;20.77;7.97;;;;;;;9.22;60.78;99024.09;1722441;81;21146;-90
2022/04/16 05:25:04;;;;;;;18.45;8.60;;;;;;;9.24;60.24;99023.63;1752909;81;21486;-91
2022/04/16 05:27:30;;;;;;;16.02;7.67;;;;;;;9.28;61.05;99022.67;1748576;81;21026;-92
2022/04/16 05:32:42;;;;;;;16.15;8.08;;;;;;;9.33;61.50;99022.14;1672478;81;21088;-90
2022/04/16 05:35:11;;;;;;;16.02;8.43;;;;;;;9.41;59.86;99025.00;1677046;85;21104;-90
2022/04/16 05:37:38;;;;;;;21.10;8.75;;;;;;;9.46;61.52;99026.61;1674747;84;21032;-87
2022/04/16 05:40:07;;;;;;;17.48;7.70;;;;;;;9.60;62.04;99025.02;1679200;83;21088;-89
2022/04/16 05:42:42;;;;;;;19.05;8.78;;;;;;;9.73;61.14;99015.23;1703046;84;21018;-87
2022/04/16 05:45:10;;;;;;;19.90;8.33;;;;;;;9.88;62.26;99018.73;1702972;83;21038;-88
2022/04/16 05:47:37;;;;;;;16.20;8.28;;;;;;;10.07;60.34;99011.83;1703832;81;21003;-88
2022/04/16 05:50:05;;;;;;;15.38;7.17;;;;;;;10.23;60.19;99009.70;1703866;81;21049;-87
2022/04/16 05:52:32;;;;;;;28.95;7.55;;;;;;;10.41;58.94;99009.27;1703273;80;21035;-87
2022/04/16 05:54:59;;;;;;;16.07;7.53;;;;;;;10.55;58.61;99012.35;1703817;83;21042;-88
2022/04/16 05:57:26;;;;;;;15.72;7.03;;;;;;;10.71;58.37;99006.30;1703482;81;21007;-88
2022/04/16 05:59:55;;;;;;;17.62;8.03;;;;;;;10.90;57.48;99013.59;1704080;82;21066;-88
2022/04/16 06:02:23;;;;;;;23.65;8.33;;;;;;;10.99;57.48;99017.24;1675994;84;21046;-88
2022/04/16 06:04:50;;;;;;;18.25;8.38;;;;;;;11.11;57.35;99014.29;1703329;84;21007;-87
2022/04/16 06:07:17;;;;;;;15.32;7.70;;;;;;;11.24;57.59;99008.73;1703511;83;21018;-84
2022/04/16 06:09:43;;;;;;;22.07;8.90;;;;;;;11.42;57.66;99008.63;1724304;80;21115;-89
2022/04/16 06:12:10;;;;;;;24.92;9.68;;;;;;;11.54;57.02;99004.38;1754158;81;21062;-91
2022/04/16 06:14:36;;;;;;;20.30;9.05;;;;;;;11.67;57.13;99002.23;1734929;82;20974;-90
2022/04/16 06:17:03;;;;;;;23.25;8.95;;;;;;;11.79;56.81;99001.01;1709835;83;21021;-90
2022/04/16 06:19:30;;;;;;;19.67;8.43;;;;;;;11.87;56.88;98996.41;1734582;81;21013;-90
2022/04/16 06:21:57;;;;;;;17.92;7.42;;;;;;;11.93;56.69;98994.94;1734209;81;21058;-92
2022/04/16 06:24:23;;;;;;;15.18;7.42;;;;;;;12.06;55.93;98993.64;1734070;81;20991;-91
2022/04/16 06:26:50;;;;;;;16.62;8.40;;;;;;;12.11;55.76;98991.72;1733985;81;21066;-90
2022/04/16 06:29:17;;;;;;;16.62;7.30;;;;;;;12.11;55.83;98982.59;1734093;81;20986;-91
2022/04/16 06:31:43;;;;;;;14.55;7.33;;;;;;;12.11;55.77;98983.91;1733638;81;21058;-89
2022/04/16 06:34:10;;;;;;;16.57;8.00;;;;;;;12.14;56.20;98985.58;1733844;82;21031;-92
2022/04/16 06:36:38;;;;;;;22.22;8.18;;;;;;;12.20;56.27;98984.53;1733713;82;20971;-90
2022/04/16 06:39:04;;;;;;;23.65;8.25;;;;;;;12.27;55.90;98980.33;1777673;79;21065;-92
2022/04/16 06:41:31;;;;;;;14.05;7.42;;;;;;;12.39;55.38;98980.37;1789999;79;21016;-91
2022/04/16 06:43:58;;;;;;;21.20;6.95;;;;;;;12.51;55.38;98976.48;1827451;78;21000;-92
2022/04/16 06:46:25;;;;;;;14.87;6.72;;;;;;;12.65;55.16;98975.58;1773786;78;20983;-88
2022/04/16 06:48:51;;;;;;;10.45;5.80;;;;;;;12.80;54.77;98972.02;1791161;77;21098;-92
2022/04/16 06:51:18;;;;;;;9.75;6.00;;;;;;;12.93;54.10;98975.43;1788539;80;20996;-89
2022/04/16 06:53:45;;;;;;;14.65;6.87;;;;;;;13.10;53.96;98968.72;1792222;80;20990;-90
2022/04/16 06:56:11;;;;;;;16.97;6.15;;;;;;;13.22;53.21;98965.65;1757249;80;20982;-81
2022/04/16 06:58:38;;;;;;;14.63;6.22;;;;;;;13.31;53.09;98967.95;1789925;80;21098;-81
2022/04/16 07:01:05;;;;;;;12.60;6.50;;;;;;;13.42;52.89;98959.69;1784377;79;21028;-81
2022/04/16 07:03:32;;;;;;;15.80;5.62;;;;;;;13.49;52.62;98962.47;1787188;79;21077;-92
2022/04/16 07:05:58;;;;;;;19.98;6.95;;;;;;;13.55;52.52;98957.47;1785017;80;21553;-91
2022/04/16 07:08:25;;;;;;;18.48;6.92;;;;;;;13.67;52.41;98952.22;1786671;80;21029;-92
2022/04/16 07:10:52;;;;;;;14.68;7.28;;;;;;;13.80;52.07;98953.86;1785225;80;21002;-91
2022/04/16 07:13:19;;;;;;;15.50;6.33;;;;;;;13.91;51.36;98949.91;1787063;76;21098;-92
2022/04/16 07:15:45;;;;;;;10.98;6.40;;;;;;;13.98;51.09;98949.19;1787391;80;21014;-92
2022/04/16 07:18:12;;;;;;;18.85;6.55;;;;;;;14.08;51.02;98937.42;1783920;79;21006;-92
2022/04/16 07:20:40;;;;;;;16.37;6.33;;;;;;;14.17;50.99;98932.28;1788265;80;21030;-93
2022/04/16 07:23:07;;;;;;;12.68;6.65;;;;;;;14.30;50.85;98927.37;1813359;78;21641;-90
2022/04/16 07:25:34;;;;;;;15.78;6.30;;;;;;;14.43;50.91;98935.55;1792834;80;21056;-91
2022/04/16 07:28:01;;;;;;;12.80;6.87;;;;;;;14.58;51.03;98933.59;1792772;80;21082;-91
2022/04/16 07:30:27;;;;;;;14.85;6.67;;;;;;;14.75;51.03;98932.85;1790868;80;20967;-91
2022/04/16 07:32:54;;;;;;;16.17;6.53;;;;;;;14.94;50.41;98934.20;1790927;80;21497;-92
2022/04/16 07:35:21;;;;;;;12.53;5.85;;;;;;;15.08;50.19;98926.98;1810676;77;21115;-92
2022/04/16 07:37:48;;;;;;;10.53;5.28;;;;;;;15.26;49.92;98920.92;1815491;79;21044;-91
2022/04/16 07:40:14;;;;;;;13.20;5.05;;;;;;;15.48;47.83;98915.97;1793731;79;21058;-91
2022/04/16 07:42:41;;;;;;;14.30;4.37;;;;;;;15.73;46.50;98907.78;1782813;80;21038;-91
2022/04/16 07:45:09;;;;;;;14.73;5.10;;;;;;;15.95;45.95;98913.28;1802093;80;21530;-90
2022/04/16 07:47:35;;;;;;;11.45;4.10;;;;;;;16.09;45.90;98911.67;1745688;77;21096;-92
2022/04/16 07:50:02;;;;;;;11.80;4.30;;;;;;;16.23;44.81;98919.28;1737156;81;21026;-92
2022/04/16 07:52:29;;;;;;;12.28;4.50;;;;;;;16.30;45.86;98920.20;1745777;81;20976;-92
2022/04/16 07:54:55;;;;;;;11.48;4.53;;;;;;;16.30;45.52;98913.65;1750621;81;21014;-91
2022/04/16 07:57:22;;;;;;;12.80;4.35;;;;;;;16.27;45.02;98910.33;1721190;83;21067;-90
2022/04/16 07:59:49;;;;;;;12.23;5.05;;;;;;;16.28;44.85;98916.81;1721305;83;21536;-92
2022/04/16 08:02:19;;;;;;;10.98;4.35;;;;;;;16.33;44.73;98910.01;1719389;83;20977;31
2022/04/16 08:04:45;;;;;;;9.60;4.30;;;;;;;16.35;44.94;98910.78;1692335;84;21083;-92
2022/04/16 08:07:12;;;;;;;11.75;4.15;;;;;;;16.44;44.66;98899.81;1707775;83;21028;-91
2022/04/16 08:09:39;;;;;;;11.35;4.58;;;;;;;16.58;44.99;98899.09;1715032;82;21112;-91
2022/04/16 08:12:07;;;;;;;12.47;4.70;;;;;;;16.69;44.48;98903.76;1720918;83;21030;-89
2022/04/16 08:14:33;;;;;;;13.98;4.28;;;;;;;16.81;43.90;98895.28;1720880;83;21071;-89
2022/04/16 08:17:00;;;;;;;14.00;4.80;;;;;;;16.88;43.41;98898.42;1690974;85;21047;-89
2022/04/16 08:19:27;;;;;;;9.93;4.50;;;;;;;16.96;43.71;98890.13;1721084;83;21066;-89
2022/04/16 08:21:53;;;;;;;7.25;4.20;;;;;;;17.03;43.02;98887.53;1690711;84;21032;-89
2022/04/16 08:24:40;;;;;;;11.43;4.83;;;;;;;17.08;43.41;98886.83;1720821;83;21012;-88
2022/04/16 08:26:51;;;;;;;9.68;4.20;;;;;;;17.05;42.99;98889.16;1715961;82;21062;-89
2022/04/16 08:29:19;;;;;;;14.47;4.80;;;;;;;17.12;43.04;98882.25;1717374;82;20997;-89
2022/04/16 08:31:45;;;;;;;14.30;4.50;;;;;;;17.18;43.14;98888.48;1712718;83;21045;-87
2022/04/16 08:34:12;;;;;;;8.35;3.90;;;;;;;17.32;43.18;98885.09;1712759;82;20998;-89
2022/04/16 08:36:39;;;;;;;12.28;3.95;;;;;;;17.47;43.17;98875.03;1712567;84;21030;-90
2022/04/16 08:39:06;;;;;;;9.88;4.10;;;;;;;17.66;42.61;98873.49;1720574;83;21070;-89
2022/04/16 08:41:33;;;;;;;8.25;3.52;;;;;;;17.82;42.59;98864.25;1737001;82;21003;-89
2022/04/16 08:43:59;;;;;;;9.58;3.30;;;;;;;17.94;41.36;98864.87;1748512;82;20964;-89
2022/04/16 08:46:28;;;;;;;5.90;2.98;;;;;;;18.11;41.58;98866.99;1748581;81;21090;-89
2022/04/16 08:48:57;;;;;;;8.20;3.05;;;;;;;18.28;41.18;98856.27;1748810;82;20991;-89
2022/04/16 08:51:26;;;;;;;8.80;3.30;;;;;;;18.49;40.80;98862.03;1736647;82;21075;-89
2022/04/16 08:53:53;;;;;;;10.95;3.60;;;;;;;18.56;40.89;98848.88;1735628;83;21004;-90
2022/04/16 08:56:20;;;;;;;7.65;3.75;;;;;;;18.66;40.28;98855.70;1720973;83;21114;-90
2022/04/16 08:58:46;;;;;;;8.00;3.10;;;;;;;18.82;40.47;98844.65;1735797;83;21000;-89
2022/04/16 09:01:13;;;;;;;14.13;3.40;;;;;;;18.99;39.89;98844.05;1720861;83;21063;-88
2022/04/16 09:03:41;;;;;;;6.00;3.27;;;;;;;19.08;38.94;98840.83;1722511;83;21179;-90
2022/04/16 09:06:08;;;;;;;6.92;3.15;;;;;;;19.10;39.10;98840.26;1744607;82;21078;-88
2022/04/16 09:08:35;;;;;;;12.58;3.75;;;;;;;19.15;38.91;98834.69;1729846;82;20966;-88
2022/04/16 09:11:12;;;;;;;9.35;3.45;;;;;;;19.22;38.92;98835.51;1706597;84;21045;-90
2022/04/16 09:13:53;;;;;;;8.20;2.98;;;;;;;19.33;39.07;98823.42;1706598;84;21038;-90
2022/04/16 09:16:21;;;;;;;8.50;2.85;;;;;;;19.50;36.71;98821.84;1702548;84;21522;-89
2022/04/16 09:18:55;;;;;;;7.22;2.45;;;;;;;19.65;35.53;98820.80;1702717;84;21004;-90
2022/04/16 09:21:27;;;;;;;6.67;3.00;;;;;;;19.77;36.26;98817.84;1702855;83;20981;-89
2022/04/16 09:24:01;;;;;;;8.23;2.90;;;;;;;19.92;35.49;98825.22;1702883;81;21020;-88
2022/04/16 09:26:32;;;;;;;12.85;4.10;;;;;;;19.94;35.10;98823.31;1702744;84;20996;-89
2022/04/16 09:29:14;;;;;;;7.87;3.42;;;;;;;19.67;33.96;98824.18;1702749;83;21025;-89
2022/04/16 09:31:48;;;;;;;8.63;3.30;;;;;;;19.53;34.67;98827.37;1702813;83;21062;-89
2022/04/16 09:34:20;;;;;;;6.85;2.77;;;;;;;19.48;35.36;98810.55;1702934;83;21067;-89
2022/04/16 09:36:48;;;;;;;10.23;3.10;;;;;;;19.57;35.28;98816.52;1702315;84;20988;-89
2022/04/16 09:39:16;;;;;;;6.33;3.00;;;;;;;19.75;35.05;98832.09;1673258;85;21394;-89
2022/04/16 09:41:49;;;;;;;8.83;2.83;;;;;;;19.84;34.97;98820.94;1706522;84;21071;-89
2022/04/16 09:44:23;;;;;;;10.28;2.95;;;;;;;20.00;34.78;98817.63;1678539;86;21012;-90
2022/04/16 09:46:50;;;;;;;13.10;7.85;;;;;;;20.25;34.68;98815.92;1677983;86;21039;-89
2022/04/16 09:49:18;;;;;;;7.62;3.22;;;;;;;20.21;33.83;98813.99;1678575;86;20972;-89
2022/04/16 09:51:47;;;;;;;6.53;2.90;;;;;;;20.21;33.09;98817.08;1678498;86;21008;-89
2022/04/16 09:54:15;;;;;;;6.37;2.60;;;;;;;20.14;33.52;98812.72;1683527;84;21031;-89
2022/04/16 09:56:51;;;;;;;8.08;2.75;;;;;;;20.08;32.55;98814.46;1691125;82;21263;-89
2022/04/16 09:59:16;;;;;;;5.97;2.42;;;;;;;19.73;33.14;98814.22;1730826;81;21147;-89
2022/04/16 10:01:48;;;;;;;8.95;2.83;;;;;;;19.73;33.13;98815.53;1692767;84;21002;-88
2022/04/16 10:04:18;;;;;;;5.83;2.67;;;;;;;19.63;33.36;98816.59;1730489;83;21056;-89
2022/04/16 10:06:46;;;;;;;5.92;2.20;;;;;;;19.63;33.36;98816.59;1737200;83;21477;-88
2022/04/16 10:09:17;;;;;;;5.15;2.58;;;;;;;19.55;32.51;98820.21;1702468;83;21504;-89
2022/04/16 10:15:16;;;;;;;4.67;2.58;;;;;;;19.39;33.78;98815.94;1761287;80;21013;-89
2022/04/16 10:17:50;;;;;;;;;;;;;;;19.49;33.75;98813.55;1762960;82;21070;-89
2022/04/16 10:20:19;;;;;;;4.87;2.77;;;;;;;19.53;33.42;98816.35;1761250;80;20106;-89
2022/04/16 10:23:07;;;;;;;6.25;2.90;;;;;;;19.58;33.81;98812.95;1761202;82;21011;-88
2022/04/16 10:25:41;;;;;;;5.62;2.55;;;;;;;19.66;33.61;98812.44;1760982;82;21078;-89
2022/04/16 10:28:11;;;;;;;9.73;2.80;;;;;;;19.71;33.44;98805.53;1761106;82;21015;-89
2022/04/16 10:30:53;;;;;;;5.70;2.87;;;;;;;19.80;32.99;98803.15;1754409;82;21055;-87
2022/04/16 10:33:28;;;;;;;6.15;2.70;;;;;;;19.77;33.29;98809.10;1733811;83;21083;-89
2022/04/16 10:36:09;;;;;;;6.70;3.60;;;;;;;19.76;33.43;98804.79;1734184;83;21080;-89
2022/04/16 10:38:37;;;;;;;8.23;2.90;;;;;;;19.83;33.21;98811.32;1737012;83;21038;-90
2022/04/16 10:41:13;;;;;;;8.13;3.02;;;;;;;19.82;33.28;98810.48;1737432;82;20981;-88
2022/04/16 10:43:40;;;;;;;8.88;3.20;;;;;;;19.72;33.38;98812.54;1737714;83;21049;-89
2022/04/16 10:46:09;;;;;;;8.15;2.60;;;;;;;19.74;33.66;98813.28;1737658;83;21010;-89
2022/04/16 10:48:38;;;;;;;5.12;2.65;;;;;;;19.68;33.48;98813.18;1737692;83;21118;-88
2022/04/16 10:51:09;;;;;;;10.13;2.80;;;;;;;19.57;32.88;98821.79;1737909;82;20992;-88
2022/04/16 10:53:37;;;;;;;9.85;3.08;;;;;;;19.69;33.11;98817.49;1737724;83;21058;-88
2022/04/16 10:56:17;;;;;;;9.83;3.52;;;;;;;19.52;33.13;98826.55;1743065;82;21050;-88
2022/04/16 10:58:50;;;;;;;10.10;3.10;;;;;;;19.51;33.64;98817.41;1742530;81;21051;-89
2022/04/16 11:01:29;;;;;;;7.35;2.62;;;;;;;19.39;33.86;98828.28;1708601;83;21031;-89
2022/04/16 11:03:57;;;;;;;6.75;3.22;;;;;;;19.13;34.31;98833.94;1695292;83;21098;-88
2022/04/16 11:06:34;;;;;;;8.55;3.25;;;;;;;19.10;34.18;98830.17;1677251;85;21055;-88
2022/04/16 11:09:01;;;;;;;4.97;2.70;;;;;;;19.17;34.33;98834.95;1700286;84;21011;-88
2022/04/16 11:11:28;;;;;;;5.78;2.72;;;;;;;19.16;34.15;98836.36;1696296;84;21042;-86
2022/04/16 11:13:57;;;;;;;5.37;3.00;;;;;;;19.23;33.86;98839.81;1696366;84;20984;-88
2022/04/16 11:16:24;;;;;;;5.40;3.52;;;;;;;19.16;34.01;98853.48;1694409;85;21078;-85
2022/04/16 11:18:51;;;;;;;8.25;3.72;;;;;;;19.01;33.79;98860.59;1693904;84;21051;-85
2022/04/16 11:21:23;;;;;;;14.90;5.03;;;;;;;19.02;34.29;98852.60;1699152;84;21000;-88
2022/04/16 11:23:53;;;;;;;10.68;3.95;;;;;;;19.00;33.83;98866.34;1702342;84;21070;-88
2022/04/16 11:34:47;;;;;;;10.90;5.40;;;;;;;19.39;34.75;98873.09;1702503;84;21062;-89
2022/04/16 11:37:14;;;;;;;9.58;4.30;;;;;;;19.39;34.73;98875.73;1702336;83;21003;-89
2022/04/16 11:39:41;;;;;;;6.97;3.92;;;;;;;19.43;35.07;98879.86;1698602;84;20977;-89
2022/04/16 11:42:09;;;;;;;11.00;4.60;;;;;;;19.47;35.01;98893.21;1696639;84;21500;-89
2022/04/16 11:44:45;;;;;;;23.50;12.18;;;;;;;19.58;36.15;98894.69;1696698;85;21015;-89
2022/04/16 11:47:15;;;;;;;11.45;5.83;;;;;;;19.71;37.35;98891.24;1696612;84;21031;-89
2022/04/16 11:49:46;;;;;;;11.83;4.92;;;;;;;19.69;39.55;98887.38;1696644;84;21000;-89
2022/04/16 11:52:14;;;;;;;8.25;3.60;;;;;;;19.65;39.38;98894.64;1696446;82;21043;-89
2022/04/16 11:54:41;;;;;;;7.58;3.77;;;;;;;19.29;40.68;98897.88;1696407;84;21034;-89
2022/04/16 11:57:11;;;;;;;7.65;3.10;;;;;;;19.25;40.76;98886.69;1696331;84;21043;-89
2022/04/16 11:59:40;;;;;;;8.78;3.20;;;;;;;19.17;42.22;98892.92;1695159;83;21487;-88